createdAt,value
2023-02-09T00:01:24.425Z,36.70
2023-02-09T00:04:17.056Z,36.10
2023-02-09T00:07:10.158Z,35.70
2023-02-09T00:10:03.530Z,35.30
2023-02-09T00:13:13.984Z,34.80
2023-02-09T00:16:07.950Z,34.50
2023-02-09T00:19:02.513Z,34.20
2023-02-09T00:21:55.528Z,33.90
2023-02-09T00:24:49.332Z,33.70
2023-02-09T00:27:42.159Z,33.50
2023-02-09T00:30:35.307Z,33.30
2023-02-09T00:33:28.378Z,33.20
2023-02-09T00:36:22.804Z,33.00
2023-02-09T00:39:16.053Z,32.80
2023-02-09T00:42:11.045Z,32.70
2023-02-09T00:45:04.737Z,32.50
2023-02-09T00:47:58.998Z,32.40
2023-02-09T00:50:53.230Z,32.30
2023-02-09T00:53:47.410Z,32.10
2023-02-09T00:56:40.188Z,31.90
2023-02-09T00:59:34.639Z,31.90
2023-02-09T01:02:28.738Z,31.80
2023-02-09T01:05:21.967Z,32.20
2023-02-09T01:08:15.092Z,31.50
2023-02-09T01:11:10.990Z,31.40
2023-02-09T01:14:04.731Z,31.30
2023-02-09T01:16:58.335Z,31.20
2023-02-09T01:19:53.610Z,31.10
2023-02-09T01:22:46.370Z,30.90
2023-02-09T01:25:39.524Z,30.80
2023-02-09T01:28:33.809Z,30.70
2023-02-09T01:31:29.553Z,30.70
2023-02-09T01:34:23.356Z,30.60
2023-02-09T01:37:16.472Z,30.50
2023-02-09T01:40:11.024Z,30.40
2023-02-09T01:43:04.621Z,30.40
2023-02-09T01:45:59.742Z,30.30
2023-02-09T01:48:57.749Z,30.20
2023-02-09T01:51:59.027Z,30.20
2023-02-09T01:54:55.783Z,30.10
2023-02-09T01:57:52.891Z,30.00
2023-02-09T02:00:47.386Z,30.00
2023-02-09T02:03:41.607Z,30.00
2023-02-09T02:06:34.923Z,30.00
2023-02-09T02:09:28.489Z,30.00
2023-02-09T02:12:21.844Z,30.00
2023-02-09T02:15:15.164Z,29.90
2023-02-09T02:18:16.299Z,29.90
2023-02-09T02:21:45.125Z,29.90
2023-02-09T02:25:26.788Z,29.90
2023-02-09T02:28:54.113Z,30.30
2023-02-09T02:32:13.550Z,29.80
2023-02-09T02:35:14.436Z,29.70
2023-02-09T02:38:18.394Z,29.80
2023-02-09T02:41:15.694Z,29.70
2023-02-09T02:44:16.893Z,29.70
2023-02-09T02:47:18.451Z,29.70
2023-02-09T02:50:15.756Z,29.80
2023-02-09T02:53:11.768Z,29.70
2023-02-09T02:56:10.658Z,29.70
2023-02-09T02:59:07.378Z,29.70
2023-02-09T03:02:06.309Z,29.70
2023-02-09T03:05:03.594Z,29.60
2023-02-09T03:07:56.037Z,29.60
2023-02-09T03:10:49.374Z,29.50
2023-02-09T03:13:54.057Z,29.50
2023-02-09T03:20:14.301Z,29.40
2023-02-09T03:23:12.946Z,29.30
2023-02-09T03:26:11.278Z,29.20
2023-02-09T03:29:04.971Z,29.20
2023-02-09T03:31:58.555Z,29.10
2023-02-09T03:34:52.636Z,29.10
2023-02-09T03:37:46.981Z,29.00
2023-02-09T03:40:40.622Z,29.00
2023-02-09T03:43:50.929Z,29.00
2023-02-09T03:46:44.370Z,28.80
2023-02-09T03:49:39.476Z,28.90
2023-02-09T03:52:32.837Z,29.00
2023-02-09T03:55:28.038Z,29.00
2023-02-09T03:58:21.727Z,28.90
2023-02-09T04:01:14.220Z,28.90
2023-02-09T04:04:07.201Z,28.90
2023-02-09T04:07:00.346Z,28.70
2023-02-09T04:09:53.259Z,28.70
2023-02-09T04:12:48.203Z,28.70
2023-02-09T04:15:41.565Z,29.10
2023-02-09T04:18:34.550Z,28.60
2023-02-09T04:21:27.581Z,28.60
2023-02-09T04:24:21.725Z,28.70
2023-02-09T04:27:14.114Z,28.60
2023-02-09T04:30:10.450Z,28.60
2023-02-09T04:33:03.274Z,29.20
2023-02-09T04:35:56.314Z,28.60
2023-02-09T04:38:49.347Z,28.50
2023-02-09T04:41:42.701Z,28.60
2023-02-09T04:44:35.294Z,28.50
2023-02-09T04:47:30.088Z,28.60
2023-02-09T04:50:23.563Z,28.50
2023-02-09T04:53:17.036Z,28.40
2023-02-09T04:56:15.293Z,28.40
2023-02-09T04:59:27.272Z,28.50
2023-02-09T05:02:20.201Z,28.30
2023-02-09T05:05:14.889Z,28.40
2023-02-09T05:08:09.208Z,28.50
2023-02-09T05:11:02.813Z,28.40
2023-02-09T05:13:56.692Z,28.40
2023-02-09T05:16:49.484Z,28.30
2023-02-09T05:19:42.398Z,28.30
2023-02-09T05:22:48.782Z,28.20
2023-02-09T05:25:45.578Z,28.20
2023-02-09T05:28:38.637Z,28.20
2023-02-09T05:31:31.836Z,28.20
2023-02-09T05:34:25.736Z,28.20
2023-02-09T05:37:18.755Z,28.20
2023-02-09T05:40:13.988Z,28.20
2023-02-09T05:43:07.664Z,28.30
2023-02-09T05:46:00.375Z,28.40
2023-02-09T05:48:53.610Z,28.60
2023-02-09T05:51:46.502Z,28.90
2023-02-09T05:54:40.022Z,29.20
2023-02-09T05:57:35.203Z,29.60
2023-02-09T06:00:29.809Z,29.90
2023-02-09T06:03:23.488Z,30.00
2023-02-09T06:06:16.143Z,30.30
2023-02-09T06:09:09.467Z,30.60
2023-02-09T06:12:02.735Z,30.80
2023-02-09T06:14:56.869Z,31.00
2023-02-09T06:17:50.844Z,31.30
2023-02-09T06:20:43.961Z,31.60
2023-02-09T06:23:37.585Z,31.70
2023-02-09T06:26:30.439Z,31.90
2023-02-09T06:29:23.994Z,32.10
2023-02-09T06:32:18.773Z,32.30
2023-02-09T06:35:11.575Z,32.50
2023-02-09T06:38:04.401Z,32.70
2023-02-09T06:40:57.656Z,33.00
2023-02-09T06:43:50.414Z,33.20
2023-02-09T06:46:43.758Z,33.30
2023-02-09T06:49:37.803Z,33.50
2023-02-09T06:52:31.365Z,33.60
2023-02-09T06:55:24.799Z,33.80
2023-02-09T06:58:17.667Z,34.00
2023-02-09T07:01:12.798Z,34.20
2023-02-09T07:04:05.146Z,34.40
2023-02-09T07:06:59.794Z,34.40
2023-02-09T07:09:52.678Z,34.40
2023-02-09T07:12:45.847Z,34.40
2023-02-09T07:15:38.326Z,35.00
2023-02-09T07:18:31.856Z,35.60
2023-02-09T07:21:24.413Z,35.90
2023-02-09T07:24:19.222Z,36.20
2023-02-09T07:27:12.587Z,36.10
2023-02-09T07:30:06.413Z,35.90
2023-02-09T07:32:59.490Z,36.00
2023-02-09T07:35:52.728Z,36.00
2023-02-09T07:38:46.137Z,36.10
2023-02-09T07:41:41.219Z,35.10
2023-02-09T07:44:34.768Z,31.50
2023-02-09T07:47:27.969Z,29.60
2023-02-09T07:50:21.720Z,30.40
2023-02-09T07:53:14.641Z,30.80
2023-02-09T07:56:07.996Z,31.70
2023-02-09T07:59:03.371Z,32.20
2023-02-09T08:01:56.412Z,32.60
2023-02-09T08:04:50.499Z,32.80
2023-02-09T08:07:43.853Z,33.00
2023-02-09T08:10:37.653Z,33.20
2023-02-09T08:13:34.809Z,34.10
2023-02-09T08:16:32.470Z,34.10
2023-02-09T08:19:25.946Z,34.00
2023-02-09T08:22:19.665Z,33.90
2023-02-09T08:25:12.520Z,34.00
2023-02-09T08:28:06.364Z,34.00
2023-02-09T08:30:59.979Z,34.00
2023-02-09T08:33:55.168Z,34.00
2023-02-09T08:36:48.371Z,34.70
2023-02-09T08:39:41.391Z,34.00
2023-02-09T08:42:34.348Z,34.10
2023-02-09T08:45:27.676Z,34.30
2023-02-09T08:48:20.492Z,34.40
2023-02-09T08:51:16.740Z,34.40
2023-02-09T08:54:09.703Z,34.60
2023-02-09T08:57:03.281Z,34.70
2023-02-09T08:59:56.282Z,34.80
2023-02-09T09:02:49.469Z,34.90
2023-02-09T09:05:42.474Z,34.90
2023-02-09T09:08:37.947Z,35.00
2023-02-09T09:11:30.788Z,35.10
2023-02-09T09:14:26.467Z,35.20
2023-02-09T09:17:19.545Z,35.30
2023-02-09T09:20:13.085Z,35.30
2023-02-09T09:23:07.181Z,35.30
2023-02-09T09:26:03.945Z,35.40
2023-02-09T09:28:56.591Z,35.50
2023-02-09T09:31:50.162Z,35.50
2023-02-09T09:34:43.978Z,35.60
2023-02-09T09:37:36.885Z,35.60
2023-02-09T09:40:33.300Z,35.70
2023-02-09T09:43:32.732Z,35.80
2023-02-09T09:46:34.966Z,35.80
2023-02-09T09:49:30.635Z,35.90
2023-02-09T09:52:30.306Z,35.90
2023-02-09T09:55:26.540Z,36.00
2023-02-09T09:58:21.249Z,36.00
2023-02-09T10:01:18.335Z,36.00
2023-02-09T10:04:14.532Z,36.00
2023-02-09T10:07:16.072Z,36.00
2023-02-09T10:10:19.187Z,36.00
2023-02-09T10:13:20.645Z,36.00
2023-02-09T10:16:19.236Z,35.90
2023-02-09T10:19:19.699Z,35.90
2023-02-09T10:22:13.730Z,35.90
2023-02-09T10:25:37.818Z,35.90
2023-02-09T10:28:32.902Z,35.90
2023-02-09T10:31:32.973Z,35.90
2023-02-09T10:34:32.626Z,35.90
2023-02-09T10:37:34.056Z,35.90
2023-02-09T10:40:29.877Z,35.80
2023-02-09T10:43:26.804Z,35.90
2023-02-09T10:46:21.422Z,35.90
2023-02-09T10:49:31.955Z,35.90
2023-02-09T10:52:26.789Z,36.00
2023-02-09T10:55:23.290Z,36.00
2023-02-09T10:58:25.519Z,36.10
2023-02-09T11:01:22.990Z,36.10
2023-02-09T11:04:24.644Z,36.20
2023-02-09T11:07:21.469Z,36.10
2023-02-09T11:10:15.466Z,36.20
2023-02-09T11:13:19.837Z,36.30
2023-02-09T11:16:31.303Z,36.20
2023-02-09T11:19:48.641Z,36.20
2023-02-09T11:23:04.731Z,36.20
2023-02-09T11:26:03.227Z,36.10
2023-02-09T11:29:04.352Z,36.10
2023-02-09T11:32:09.147Z,36.00
2023-02-09T11:35:09.197Z,35.90
2023-02-09T11:38:07.781Z,35.90
2023-02-09T11:41:23.260Z,35.90
2023-02-09T11:44:26.299Z,35.80
2023-02-09T11:47:26.973Z,35.80
2023-02-09T11:50:27.785Z,35.80
2023-02-09T11:53:32.686Z,35.80
2023-02-09T11:56:27.751Z,35.80
2023-02-09T11:59:27.682Z,35.80
2023-02-09T12:02:36.618Z,35.90
2023-02-09T12:05:29.979Z,36.00
2023-02-09T12:08:52.908Z,35.90
2023-02-09T12:11:56.401Z,36.00
2023-02-09T12:15:00.983Z,36.00
2023-02-09T12:17:58.766Z,36.00
2023-02-09T12:20:53.978Z,36.00
2023-02-09T12:23:46.738Z,36.10
2023-02-09T12:26:46.617Z,36.10
2023-02-09T12:29:41.522Z,36.00
2023-02-09T12:32:45.456Z,36.10
2023-02-09T12:35:40.937Z,36.00
2023-02-09T12:38:55.523Z,36.00
2023-02-09T12:42:28.329Z,36.10
2023-02-09T12:45:36.322Z,36.10
2023-02-09T12:48:30.098Z,36.10
2023-02-09T12:51:52.498Z,36.10
2023-02-09T12:54:48.992Z,36.20
2023-02-09T12:57:51.971Z,36.20
2023-02-09T13:00:55.350Z,36.20
2023-02-09T13:03:55.974Z,36.20
2023-02-09T13:06:55.085Z,36.20
2023-02-09T13:09:49.534Z,36.20
2023-02-09T13:12:50.014Z,36.30
2023-02-09T13:15:55.562Z,36.40
2023-02-09T13:18:58.131Z,36.40
2023-02-09T13:22:01.331Z,36.30
2023-02-09T13:25:00.096Z,36.30
2023-02-09T13:27:52.620Z,36.40
2023-02-09T13:30:48.098Z,36.30
2023-02-09T13:33:48.609Z,36.30
2023-02-09T13:36:47.309Z,36.30
2023-02-09T13:39:44.084Z,36.30
2023-02-09T13:42:38.083Z,36.30
2023-02-09T13:45:31.694Z,36.40
2023-02-09T13:48:27.758Z,36.40
2023-02-09T13:51:23.918Z,36.50
2023-02-09T13:54:20.312Z,36.40
2023-02-09T13:57:32.506Z,36.60
2023-02-09T14:00:29.289Z,36.60
2023-02-09T14:03:25.135Z,36.60
2023-02-09T14:06:23.468Z,36.60
2023-02-09T14:09:21.042Z,36.70
2023-02-09T14:12:18.397Z,36.80
2023-02-09T14:15:32.306Z,36.80
2023-02-09T14:18:32.111Z,36.80
2023-02-09T14:21:29.661Z,37.00
2023-02-09T14:24:24.012Z,36.90
2023-02-09T14:27:22.300Z,37.00
2023-02-09T14:30:18.122Z,37.00
2023-02-09T14:33:24.706Z,37.00
2023-02-09T14:36:24.006Z,37.10
2023-02-09T14:39:21.072Z,37.10
2023-02-09T14:42:18.709Z,37.10
2023-02-09T14:45:38.242Z,37.20
2023-02-09T14:48:32.047Z,37.20
2023-02-09T14:51:27.549Z,37.20
2023-02-09T14:54:27.860Z,37.20
2023-02-09T14:57:21.608Z,37.40
2023-02-09T15:00:18.360Z,37.40
2023-02-09T15:03:12.128Z,37.50
2023-02-09T15:06:06.423Z,37.50
2023-02-09T15:09:00.787Z,37.50
2023-02-09T15:12:07.204Z,37.50
2023-02-09T15:15:02.355Z,37.60
2023-02-09T15:17:56.789Z,37.50
2023-02-09T15:20:51.271Z,37.60
2023-02-09T15:23:45.059Z,37.60
2023-02-09T15:26:38.324Z,37.60
2023-02-09T15:29:34.547Z,37.70
2023-02-09T15:32:29.063Z,37.70
2023-02-09T15:35:23.796Z,37.70
2023-02-09T15:38:18.343Z,37.70
2023-02-09T15:41:29.598Z,37.70
2023-02-09T15:44:40.348Z,37.80
2023-02-09T15:47:49.726Z,37.80
2023-02-09T15:50:46.761Z,37.90
2023-02-09T15:53:40.771Z,37.90
2023-02-09T15:56:35.320Z,37.90
2023-02-09T15:59:28.779Z,37.90
2023-02-09T16:02:22.430Z,37.90
2023-02-09T16:05:17.666Z,37.90
2023-02-09T16:08:18.860Z,37.90
2023-02-09T16:11:19.229Z,37.90
2023-02-09T16:14:16.326Z,38.00
2023-02-09T16:17:09.772Z,37.90
2023-02-09T16:20:03.273Z,38.00
2023-02-09T16:22:58.531Z,38.00
2023-02-09T16:25:54.270Z,38.00
2023-02-09T16:28:48.143Z,38.00
2023-02-09T16:31:41.224Z,38.00
2023-02-09T16:34:34.041Z,38.00
2023-02-09T16:37:30.016Z,38.00
2023-02-09T16:40:30.182Z,38.00
2023-02-09T16:43:23.817Z,38.00
2023-02-09T16:46:16.993Z,38.00
2023-02-09T16:49:29.384Z,38.00
2023-02-09T16:52:25.797Z,38.00
2023-02-09T16:55:25.940Z,38.00
2023-02-09T16:58:20.206Z,38.00
2023-02-09T17:01:16.906Z,38.10
2023-02-09T17:04:13.773Z,38.10
2023-02-09T17:07:07.211Z,38.10
2023-02-09T17:10:01.884Z,38.10
2023-02-09T17:12:55.042Z,38.10
2023-02-09T17:15:51.610Z,38.10
2023-02-09T17:18:46.303Z,38.10
2023-02-09T17:21:41.069Z,38.10
2023-02-09T17:24:34.306Z,38.10
2023-02-09T17:27:27.180Z,38.10
2023-02-09T17:30:20.078Z,38.10
2023-02-09T17:33:23.461Z,38.20
2023-02-09T17:36:26.545Z,38.20
2023-02-09T17:39:20.040Z,38.10
2023-02-09T17:42:21.774Z,38.20
2023-02-09T17:45:22.514Z,38.10
2023-02-09T17:48:18.141Z,38.20
2023-02-09T17:51:18.868Z,38.20
2023-02-09T17:54:15.114Z,38.20
2023-02-09T17:57:09.811Z,38.30
2023-02-09T18:00:03.528Z,38.20
2023-02-09T18:02:57.061Z,38.30
2023-02-09T18:05:53.927Z,38.30
2023-02-09T18:08:46.887Z,38.30
2023-02-09T18:11:43.170Z,38.30
2023-02-09T18:14:36.619Z,38.30
2023-02-09T18:17:30.259Z,38.30
2023-02-09T18:20:25.381Z,38.30
2023-02-09T18:23:19.437Z,38.40
2023-02-09T18:26:13.275Z,38.30
2023-02-09T18:29:06.340Z,38.40
2023-02-09T18:32:00.062Z,38.40
2023-02-09T18:34:53.314Z,38.40
2023-02-09T18:37:47.181Z,38.30
2023-02-09T18:40:41.522Z,38.40
2023-02-09T18:43:34.800Z,38.40
2023-02-09T18:46:28.107Z,38.40
2023-02-09T18:49:21.545Z,38.40
2023-02-09T18:52:16.985Z,38.40
2023-02-09T18:55:10.132Z,39.10
2023-02-09T18:58:09.217Z,38.40
2023-02-09T19:01:01.874Z,38.50
2023-02-09T19:03:55.795Z,38.50
2023-02-09T19:06:49.068Z,38.50
2023-02-09T19:09:42.938Z,38.50
2023-02-09T19:12:36.212Z,38.50
2023-02-09T19:15:31.527Z,38.50
2023-02-09T19:18:24.974Z,38.50
2023-02-09T19:21:20.275Z,38.60
2023-02-09T19:24:13.517Z,38.50
2023-02-09T19:27:09.423Z,38.50
2023-02-09T19:30:03.250Z,38.50
2023-02-09T19:32:59.936Z,38.50
2023-02-09T19:36:00.229Z,38.50
2023-02-09T19:38:53.282Z,38.60
2023-02-09T19:41:47.140Z,38.20
2023-02-09T19:44:40.125Z,34.80
2023-02-09T19:47:33.290Z,35.20
2023-02-09T19:50:27.721Z,35.80
2023-02-09T19:53:21.322Z,36.10
2023-02-09T19:56:16.913Z,36.30
2023-02-09T19:59:10.273Z,36.50
2023-02-09T20:02:03.687Z,36.60
2023-02-09T20:04:56.980Z,36.70
2023-02-09T20:07:53.667Z,36.80
2023-02-09T20:10:47.743Z,36.90
2023-02-09T20:13:41.157Z,37.00
2023-02-09T20:16:33.999Z,37.00
2023-02-09T20:19:27.347Z,37.00
2023-02-09T20:22:20.064Z,37.10
2023-02-09T20:25:15.079Z,37.10
2023-02-09T20:28:08.640Z,37.20
2023-02-09T20:31:02.317Z,37.20
2023-02-09T20:33:55.558Z,37.20
2023-02-09T20:36:50.446Z,37.20
2023-02-09T20:39:43.069Z,37.30
2023-02-09T20:42:55.019Z,37.30
2023-02-09T20:46:05.249Z,37.40
2023-02-09T20:48:58.508Z,37.40
2023-02-09T20:51:51.266Z,37.40
2023-02-09T20:54:44.334Z,37.40
2023-02-09T20:57:38.472Z,37.50
2023-02-09T21:00:31.404Z,37.50
2023-02-09T21:03:24.178Z,37.50
2023-02-09T21:06:17.589Z,37.50
2023-02-09T21:09:13.723Z,37.50
2023-02-09T21:12:07.206Z,37.60
2023-02-09T21:15:01.654Z,37.60
2023-02-09T21:17:55.495Z,37.60
2023-02-09T21:20:48.842Z,37.60
2023-02-09T21:23:42.574Z,37.60
2023-02-09T21:26:40.114Z,37.60
2023-02-09T21:29:33.900Z,37.60
2023-02-09T21:32:28.912Z,37.70
2023-02-09T21:35:22.219Z,37.70
2023-02-09T21:38:15.284Z,37.70
2023-02-09T21:41:30.555Z,37.70
2023-02-09T21:44:23.308Z,37.80
2023-02-09T21:47:16.358Z,37.80
2023-02-09T21:50:12.835Z,37.80
2023-02-09T21:53:06.572Z,37.80
2023-02-09T21:55:59.973Z,37.80
2023-02-09T21:58:53.633Z,37.80
2023-02-09T22:01:47.515Z,37.80
2023-02-09T22:04:40.866Z,37.90
2023-02-09T22:07:37.091Z,37.90
2023-02-09T22:10:30.732Z,37.90
2023-02-09T22:13:24.309Z,38.60
2023-02-09T22:16:20.490Z,37.90
2023-02-09T22:19:13.269Z,37.90
2023-02-09T22:22:06.445Z,37.90
2023-02-09T22:25:00.684Z,38.00
2023-02-09T22:27:54.872Z,38.00
2023-02-09T22:30:48.443Z,38.10
2023-02-09T22:33:42.881Z,38.60
2023-02-09T22:36:37.217Z,38.00
2023-02-09T22:39:30.396Z,38.10
2023-02-09T22:42:24.401Z,38.10
2023-02-09T22:45:17.473Z,38.10
2023-02-09T22:48:11.595Z,38.10
2023-02-09T22:51:04.760Z,38.10
2023-02-09T22:53:58.951Z,38.20
2023-02-09T22:56:52.832Z,38.20
2023-02-09T22:59:47.528Z,38.20
2023-02-09T23:02:40.544Z,38.20
2023-02-09T23:05:33.440Z,38.20
2023-02-09T23:08:26.296Z,38.20
2023-02-09T23:11:19.362Z,38.30
2023-02-09T23:14:12.569Z,38.30
2023-02-09T23:17:06.626Z,38.30
2023-02-09T23:19:59.847Z,38.30
2023-02-09T23:22:56.306Z,38.30
2023-02-09T23:25:53.017Z,38.30
2023-02-09T23:28:47.149Z,38.30
2023-02-09T23:31:41.271Z,38.40
2023-02-09T23:34:35.443Z,38.40
2023-02-09T23:37:37.301Z,38.30
2023-02-09T23:40:31.314Z,38.40
2023-02-09T23:43:24.353Z,38.40
2023-02-09T23:46:19.501Z,38.40
2023-02-09T23:49:12.998Z,38.40
2023-02-09T23:52:07.779Z,38.40
2023-02-09T23:55:02.645Z,38.50
2023-02-09T23:57:55.440Z,38.50
